Terminal Aerodrome Forecast
Issued by NWS

Home | Current Version | Previous Version | Text Only | Print | Product List | Glossary On
Versions: 1 2 3 4 5 6 7 8 9 10 11 12 13 14 15 16
738
FTUS42 KMLB 090204 AAA
TAFSFB
TAF AMD
KSFB 090204Z 0902/0924 23011KT P6SM VCSH SCT040 BKN080 BKN200
      WS015/25036KT
     FM090400 28016G24KT P6SM BKN050
     FM091700 27020G30KT P6SM BKN050=

USA.gov is the U.S. government's official web portal to all federal, state and local government web resources and services.